Terminal Aerodrome Forecast
Issued by NWS

Home | Current Version | Previous Version | Text Only | Print | Product List | Glossary On
Versions: 1 2 3 4 5 6 7 8 9 10 11 12
000
FTUS45 KRIW 311700
TAFBPI
TAF
KBPI 311729Z 3118/0118 VRB04KT P6SM SCT130 BKN200
     FM312000 18007KT P6SM SCT130 BKN200
     FM010200 VRB05KT P6SM SCT130 BKN200
     FM010900 VRB05KT P6SM SCT030 BKN080
     FM011500 VRB06KT P6SM VCSH SCT025 BKN060=

USA.gov is the U.S. government's official web portal to all federal, state and local government web resources and services.